createdAt,value
2023-12-18T00:02:37.966Z,87.50
2023-12-18T00:05:42.170Z,87.30
2023-12-18T00:08:44.726Z,87.50
2023-12-18T00:11:46.703Z,87.50
2023-12-18T00:14:48.734Z,87.30
2023-12-18T00:17:51.357Z,87.20
2023-12-18T00:20:53.402Z,87.30
2023-12-18T00:23:56.036Z,87.30
2023-12-18T00:26:58.066Z,87.10
2023-12-18T00:30:00.162Z,87.10
2023-12-18T00:33:03.491Z,87.10
2023-12-18T00:36:05.925Z,87.30
2023-12-18T00:39:08.010Z,87.20
2023-12-18T00:42:10.116Z,87.40
2023-12-18T00:45:12.181Z,87.50
2023-12-18T00:48:15.255Z,87.50
2023-12-18T00:51:17.439Z,87.70
2023-12-18T00:54:19.501Z,87.50
2023-12-18T00:57:21.638Z,87.60
2023-12-18T01:00:23.836Z,87.70
2023-12-18T01:03:26.692Z,87.70
2023-12-18T01:06:31.207Z,87.90
2023-12-18T01:09:33.329Z,87.60
2023-12-18T01:12:36.141Z,87.50
2023-12-18T01:15:38.314Z,87.30
2023-12-18T01:18:41.998Z,87.60
2023-12-18T01:21:44.139Z,87.40
2023-12-18T01:24:46.171Z,87.80
2023-12-18T01:27:48.222Z,87.50
2023-12-18T01:30:52.792Z,87.50
2023-12-18T01:33:55.316Z,87.70
2023-12-18T01:36:59.552Z,87.50
2023-12-18T01:40:01.578Z,87.50
2023-12-18T01:43:03.758Z,87.50
2023-12-18T01:46:06.741Z,87.40
2023-12-18T01:49:10.201Z,87.60
2023-12-18T01:52:12.666Z,87.40
2023-12-18T01:55:16.074Z,87.10
2023-12-18T01:58:18.685Z,86.90
2023-12-18T02:01:20.838Z,87.00
2023-12-18T02:04:24.742Z,87.20
2023-12-18T02:07:28.147Z,87.10
2023-12-18T02:10:31.032Z,87.20
2023-12-18T02:13:33.145Z,87.20
2023-12-18T02:16:35.174Z,87.10
2023-12-18T02:19:37.249Z,87.00
2023-12-18T02:22:59.629Z,87.00
2023-12-18T02:26:01.631Z,87.20
2023-12-18T02:29:03.883Z,87.10
2023-12-18T02:32:06.112Z,86.70
2023-12-18T02:35:09.064Z,86.80
2023-12-18T02:38:11.349Z,86.90
2023-12-18T02:41:13.372Z,86.70
2023-12-18T02:44:17.833Z,86.80
2023-12-18T02:47:19.843Z,86.40
2023-12-18T02:50:22.043Z,86.50
2023-12-18T02:53:27.129Z,86.50
2023-12-18T02:56:29.085Z,86.50
2023-12-18T02:59:31.662Z,86.40
2023-12-18T03:02:34.167Z,86.70
2023-12-18T03:05:36.438Z,86.60
2023-12-18T03:08:38.415Z,86.70
2023-12-18T03:11:42.271Z,86.70
2023-12-18T03:14:44.254Z,86.60
2023-12-18T03:17:46.581Z,86.60
2023-12-18T03:20:49.783Z,86.40
2023-12-18T03:23:51.942Z,86.60
2023-12-18T03:26:54.487Z,86.40
2023-12-18T03:29:58.826Z,86.60
2023-12-18T03:33:01.071Z,86.60
2023-12-18T03:36:04.279Z,86.40
2023-12-18T03:39:06.291Z,86.60
2023-12-18T03:42:08.508Z,86.60
2023-12-18T03:45:10.709Z,86.60
2023-12-18T03:48:12.842Z,86.60
2023-12-18T03:51:18.293Z,86.40
2023-12-18T03:54:20.354Z,86.40
2023-12-18T03:57:22.483Z,86.80
2023-12-18T04:00:24.502Z,86.60
2023-12-18T04:03:26.746Z,86.70
2023-12-18T04:06:29.182Z,86.60
2023-12-18T04:09:31.270Z,86.80
2023-12-18T04:12:33.330Z,87.10
2023-12-18T04:15:35.542Z,86.90
2023-12-18T04:18:38.246Z,86.70
2023-12-18T04:21:40.440Z,86.40
2023-12-18T04:24:42.521Z,86.60
2023-12-18T04:27:47.226Z,86.80
2023-12-18T04:30:49.377Z,86.60
2023-12-18T04:33:53.809Z,86.50
2023-12-18T04:36:55.895Z,86.50
2023-12-18T04:39:58.216Z,86.90
2023-12-18T04:43:00.225Z,86.80
2023-12-18T04:46:02.530Z,86.80
2023-12-18T04:49:05.836Z,86.90
2023-12-18T04:52:07.972Z,86.50
2023-12-18T04:55:10.280Z,86.70
2023-12-18T04:58:12.715Z,86.80
2023-12-18T05:01:16.440Z,86.90
2023-12-18T05:04:18.745Z,86.80
2023-12-18T05:07:21.375Z,86.80
2023-12-18T05:10:23.533Z,86.90
2023-12-18T05:13:25.516Z,86.90
2023-12-18T05:16:27.875Z,86.80
2023-12-18T05:19:29.970Z,87.20
2023-12-18T05:22:32.052Z,87.00
2023-12-18T05:25:33.994Z,86.70
2023-12-18T05:28:36.031Z,87.00
2023-12-18T05:31:38.133Z,86.70
2023-12-18T05:34:40.278Z,87.10
2023-12-18T05:37:42.884Z,87.20
2023-12-18T05:40:45.001Z,87.10
2023-12-18T05:43:46.994Z,86.90
2023-12-18T05:46:49.011Z,86.80
2023-12-18T05:49:53.642Z,86.70
2023-12-18T05:52:58.277Z,86.60
2023-12-18T05:56:00.353Z,86.80
2023-12-18T05:59:02.380Z,86.70
2023-12-18T06:02:04.566Z,86.60
2023-12-18T06:05:08.557Z,86.70
2023-12-18T06:08:10.981Z,86.60
2023-12-18T06:11:12.992Z,86.50
2023-12-18T06:14:15.063Z,86.60
2023-12-18T06:17:17.151Z,86.70
2023-12-18T06:20:19.927Z,86.80
2023-12-18T06:23:22.332Z,86.80
2023-12-18T06:26:24.478Z,86.80
2023-12-18T06:29:31.887Z,86.90
2023-12-18T06:32:33.981Z,86.90
2023-12-18T06:35:36.331Z,86.70
2023-12-18T06:38:38.345Z,86.90
2023-12-18T06:41:40.626Z,86.70
2023-12-18T06:44:42.879Z,86.50
2023-12-18T06:47:44.946Z,86.60
2023-12-18T06:50:46.960Z,86.60
2023-12-18T06:53:48.983Z,86.50
2023-12-18T06:56:51.017Z,86.60
2023-12-18T06:59:53.168Z,86.60
2023-12-18T07:02:55.176Z,86.30
2023-12-18T07:05:57.460Z,86.30
2023-12-18T07:09:02.741Z,86.30
2023-12-18T07:12:05.101Z,86.50
2023-12-18T07:15:08.433Z,86.50
2023-12-18T07:18:10.612Z,86.30
2023-12-18T07:21:12.854Z,86.40
2023-12-18T07:24:15.181Z,86.50
2023-12-18T07:27:17.497Z,86.50
2023-12-18T07:30:20.063Z,86.40
2023-12-18T07:33:22.410Z,86.50
2023-12-18T07:36:24.602Z,86.70
2023-12-18T07:39:29.214Z,86.50
2023-12-18T07:42:31.735Z,86.30
2023-12-18T07:45:34.429Z,86.20
2023-12-18T07:48:39.493Z,86.40
2023-12-18T07:51:42.217Z,86.40
2023-12-18T07:54:44.355Z,86.40
2023-12-18T07:57:46.635Z,86.20
2023-12-18T08:00:51.430Z,86.20
2023-12-18T08:03:53.544Z,86.50
2023-12-18T08:06:55.548Z,86.60
2023-12-18T08:09:57.655Z,86.50
2023-12-18T08:12:59.683Z,86.50
2023-12-18T08:16:01.689Z,86.10
2023-12-18T08:19:04.285Z,85.80
2023-12-18T08:22:06.375Z,85.80
2023-12-18T08:25:09.403Z,85.60
2023-12-18T08:28:11.530Z,85.20
2023-12-18T08:31:13.811Z,85.00
2023-12-18T08:34:16.057Z,85.30
2023-12-18T08:37:18.070Z,85.50
2023-12-18T08:40:20.115Z,85.30
2023-12-18T08:43:22.086Z,85.30
2023-12-18T08:46:24.112Z,84.80
2023-12-18T08:49:26.194Z,84.80
2023-12-18T08:52:28.286Z,84.80
2023-12-18T08:55:30.296Z,84.70
2023-12-18T08:58:32.276Z,84.50
2023-12-18T09:01:37.901Z,84.30
2023-12-18T09:04:40.173Z,84.10
2023-12-18T09:07:42.266Z,83.70
2023-12-18T09:10:48.019Z,81.60
2023-12-18T09:13:51.514Z,78.60
2023-12-18T09:16:54.428Z,77.90
2023-12-18T09:19:56.475Z,76.80
2023-12-18T09:22:58.534Z,74.90
2023-12-18T09:26:00.512Z,74.00
2023-12-18T09:29:03.027Z,72.40
2023-12-18T09:32:05.509Z,70.60
2023-12-18T09:35:08.505Z,69.70
2023-12-18T09:38:12.143Z,68.70
2023-12-18T09:41:25.686Z,68.70
2023-12-18T09:44:27.777Z,68.40
2023-12-18T09:47:30.149Z,68.10
2023-12-18T09:50:32.157Z,68.10
2023-12-18T09:53:34.376Z,66.80
2023-12-18T09:56:37.313Z,65.90
2023-12-18T09:59:39.343Z,67.70
2023-12-18T10:02:45.590Z,69.30
2023-12-18T10:05:48.020Z,68.10
2023-12-18T10:08:53.199Z,67.40
2023-12-18T10:11:55.240Z,66.00
2023-12-18T10:14:57.205Z,65.90
2023-12-18T10:17:59.308Z,65.10
2023-12-18T10:21:01.991Z,64.50
2023-12-18T10:24:04.234Z,64.10
2023-12-18T10:27:06.191Z,63.30
2023-12-18T10:30:09.776Z,61.00
2023-12-18T10:33:14.038Z,61.50
2023-12-18T10:36:17.545Z,61.50
2023-12-18T10:39:22.895Z,61.70
2023-12-18T10:42:38.567Z,61.10
2023-12-18T10:45:42.231Z,60.60
2023-12-18T10:48:49.904Z,60.30
2023-12-18T10:51:53.426Z,61.80
2023-12-18T10:54:59.044Z,60.70
2023-12-18T10:58:03.146Z,60.60
2023-12-18T11:01:06.468Z,62.00
2023-12-18T11:04:10.869Z,61.50
2023-12-18T11:07:15.021Z,62.00
2023-12-18T11:10:17.336Z,62.00
2023-12-18T11:13:30.744Z,62.60
2023-12-18T11:16:55.325Z,63.00
2023-12-18T11:20:23.743Z,63.30
2023-12-18T11:23:28.684Z,62.40
2023-12-18T11:26:31.746Z,62.50
2023-12-18T11:29:36.795Z,65.00
2023-12-18T11:32:47.647Z,64.80
2023-12-18T11:35:50.622Z,65.30
2023-12-18T11:38:52.677Z,66.70
2023-12-18T11:41:55.715Z,66.30
2023-12-18T11:45:04.379Z,67.20
2023-12-18T11:48:07.339Z,66.80
2023-12-18T12:03:27.293Z,65.50
2023-12-18T12:06:29.975Z,66.30
2023-12-18T12:09:31.957Z,66.50
2023-12-18T12:12:42.623Z,66.80
2023-12-18T12:15:53.040Z,67.40
2023-12-18T12:18:57.795Z,67.50
2023-12-18T12:21:59.915Z,67.70
2023-12-18T12:25:02.376Z,66.60
2023-12-18T12:28:04.830Z,67.10
2023-12-18T12:31:07.232Z,67.10
2023-12-18T12:34:13.202Z,67.00
2023-12-18T12:37:15.978Z,67.60
2023-12-18T12:40:17.964Z,67.70
2023-12-18T12:43:20.042Z,66.70
2023-12-18T12:46:26.952Z,67.10
2023-12-18T12:49:37.022Z,67.20
2023-12-18T12:52:41.327Z,67.40
2023-12-18T12:55:43.517Z,67.00
2023-12-18T12:58:45.518Z,67.60
2023-12-18T13:01:47.510Z,67.50
2023-12-18T13:04:50.101Z,67.40
2023-12-18T13:07:52.257Z,67.10
2023-12-18T13:10:59.005Z,67.80
2023-12-18T13:14:09.145Z,67.60
2023-12-18T13:17:16.930Z,67.10
2023-12-18T13:20:27.349Z,67.30
2023-12-18T13:23:30.923Z,67.60
2023-12-18T13:26:33.028Z,67.10
2023-12-18T13:29:35.100Z,67.00
2023-12-18T13:32:37.665Z,67.20
2023-12-18T13:35:39.763Z,67.30
2023-12-18T13:38:41.774Z,67.30
2023-12-18T13:41:44.316Z,67.10
2023-12-18T13:44:46.280Z,67.90
2023-12-18T13:47:54.080Z,67.60
2023-12-18T13:50:59.618Z,68.20
2023-12-18T13:54:02.000Z,67.60
2023-12-18T13:57:04.147Z,68.20
2023-12-18T14:00:06.800Z,68.20
2023-12-18T14:03:09.196Z,68.40
2023-12-18T14:06:11.426Z,68.60
2023-12-18T14:09:13.533Z,68.70
2023-12-18T14:12:15.838Z,69.10
2023-12-18T14:15:19.183Z,69.80
2023-12-18T14:18:21.488Z,69.70
2023-12-18T14:21:23.889Z,69.80
2023-12-18T14:24:25.937Z,70.00
2023-12-18T14:27:28.001Z,70.10
2023-12-18T14:30:30.160Z,70.20
2023-12-18T14:33:32.377Z,70.30
2023-12-18T14:36:34.605Z,70.60
2023-12-18T14:39:38.429Z,71.00
2023-12-18T14:42:40.735Z,71.40
2023-12-18T14:45:42.984Z,71.70
2023-12-18T14:48:45.162Z,71.70
2023-12-18T14:51:47.232Z,72.10
2023-12-18T14:54:49.508Z,72.50
2023-12-18T14:57:51.688Z,72.70
2023-12-18T15:00:54.087Z,73.00
2023-12-18T15:03:58.421Z,73.30
2023-12-18T15:07:00.853Z,73.20
2023-12-18T15:10:04.138Z,73.70
2023-12-18T15:13:06.306Z,73.70
2023-12-18T15:16:08.457Z,74.00
2023-12-18T15:19:11.001Z,74.20
2023-12-18T15:22:16.138Z,74.40
2023-12-18T15:25:18.244Z,74.30
2023-12-18T15:28:21.436Z,74.70
2023-12-18T15:31:26.483Z,74.70
2023-12-18T15:34:28.827Z,74.90
2023-12-18T15:37:31.049Z,75.20
2023-12-18T15:40:33.092Z,75.70
2023-12-18T15:43:35.227Z,75.70
2023-12-18T15:46:37.411Z,76.10
2023-12-18T15:49:39.512Z,76.30
2023-12-18T15:52:41.812Z,76.40
2023-12-18T15:55:44.281Z,76.70
2023-12-18T15:58:48.280Z,77.00
2023-12-18T16:01:50.489Z,77.00
2023-12-18T16:04:52.574Z,77.40
2023-12-18T16:07:54.671Z,77.50
2023-12-18T16:10:56.813Z,77.70
2023-12-18T16:13:59.416Z,77.80
2023-12-18T16:17:01.456Z,77.80
2023-12-18T16:20:03.839Z,77.80
2023-12-18T16:23:05.862Z,77.90
2023-12-18T16:26:09.950Z,77.90
2023-12-18T16:29:12.652Z,78.00
2023-12-18T16:32:14.967Z,78.00
2023-12-18T16:35:19.649Z,78.10
2023-12-18T16:38:21.949Z,78.20
2023-12-18T16:41:24.007Z,78.30
2023-12-18T16:44:27.293Z,78.60
2023-12-18T16:47:29.349Z,78.80
2023-12-18T16:50:31.424Z,78.90
2023-12-18T16:53:33.568Z,78.90
2023-12-18T16:56:37.214Z,79.00
2023-12-18T16:59:39.932Z,79.10
2023-12-18T17:02:42.435Z,79.10
2023-12-18T17:05:44.819Z,79.00
2023-12-18T17:08:57.180Z,79.20
2023-12-18T17:11:59.260Z,79.30
2023-12-18T17:15:01.208Z,79.40
2023-12-18T17:18:03.307Z,79.50
2023-12-18T17:21:05.721Z,79.60
2023-12-18T17:24:07.973Z,79.60
2023-12-18T17:27:09.969Z,79.80
2023-12-18T17:30:12.765Z,79.90
2023-12-18T17:33:15.276Z,79.80
2023-12-18T17:36:18.230Z,79.70
2023-12-18T17:39:20.292Z,80.10
2023-12-18T17:42:22.369Z,80.10
2023-12-18T17:45:24.788Z,80.00
2023-12-18T17:48:27.036Z,80.20
2023-12-18T17:51:29.227Z,80.10
2023-12-18T17:54:31.311Z,80.10
2023-12-18T17:57:33.604Z,80.10
2023-12-18T18:00:35.845Z,80.10
2023-12-18T18:03:38.040Z,80.30
2023-12-18T18:06:40.239Z,80.60
2023-12-18T18:09:42.686Z,80.80
2023-12-18T18:12:44.799Z,80.70
2023-12-18T18:15:46.931Z,80.70
2023-12-18T18:18:49.087Z,80.90
2023-12-18T18:21:51.727Z,80.80
2023-12-18T18:24:55.338Z,80.90
2023-12-18T18:27:57.556Z,80.70
2023-12-18T18:30:59.835Z,81.00
2023-12-18T18:34:02.296Z,80.80
2023-12-18T18:37:04.758Z,80.80
2023-12-18T18:40:07.568Z,81.00
2023-12-18T18:43:09.766Z,80.90
2023-12-18T18:46:17.033Z,81.20
2023-12-18T18:49:19.329Z,81.40
2023-12-18T18:52:21.778Z,81.60
2023-12-18T18:55:26.397Z,82.00
2023-12-18T18:58:28.529Z,82.50
2023-12-18T19:01:30.982Z,82.60
2023-12-18T19:04:36.066Z,83.00
2023-12-18T19:07:38.243Z,83.10
2023-12-18T19:10:40.256Z,83.10
2023-12-18T19:13:42.317Z,83.10
2023-12-18T19:16:44.767Z,83.20
2023-12-18T19:19:46.968Z,83.20
2023-12-18T19:22:48.980Z,83.20
2023-12-18T19:25:51.132Z,82.80
2023-12-18T19:28:53.689Z,82.30
2023-12-18T19:31:55.923Z,82.50
2023-12-18T19:34:58.053Z,82.50
2023-12-18T19:38:00.182Z,82.50
2023-12-18T19:41:04.694Z,82.30
2023-12-18T19:44:06.725Z,82.20
2023-12-18T19:47:09.113Z,82.20
2023-12-18T19:50:11.620Z,82.10
2023-12-18T19:53:13.858Z,82.20
2023-12-18T19:56:16.011Z,82.40
2023-12-18T19:59:30.544Z,82.40
2023-12-18T20:02:33.850Z,82.50
2023-12-18T20:05:35.872Z,82.70
2023-12-18T20:08:37.896Z,82.50
2023-12-18T20:11:40.031Z,83.40
2023-12-18T20:14:48.218Z,83.20
2023-12-18T20:17:56.222Z,83.50
2023-12-18T20:20:58.416Z,83.50
2023-12-18T20:24:00.542Z,83.30
2023-12-18T20:27:02.872Z,83.00
2023-12-18T20:30:05.378Z,82.90
2023-12-18T20:33:07.441Z,82.90
2023-12-18T20:36:09.507Z,82.60
2023-12-18T20:39:11.659Z,82.50
2023-12-18T20:42:13.827Z,82.60
2023-12-18T20:45:18.496Z,82.70
2023-12-18T20:48:20.668Z,82.70
2023-12-18T20:51:24.965Z,82.70
2023-12-18T20:54:27.243Z,82.70
2023-12-18T20:57:31.291Z,82.80
2023-12-18T21:00:35.952Z,82.90
2023-12-18T21:03:40.355Z,83.10
2023-12-18T21:06:42.916Z,83.30
2023-12-18T21:09:45.208Z,83.30
2023-12-18T21:12:47.657Z,83.30
2023-12-18T21:15:52.070Z,83.40
2023-12-18T21:18:55.522Z,83.50
2023-12-18T21:22:04.900Z,83.20
2023-12-18T21:25:13.385Z,83.60
2023-12-18T21:28:15.875Z,83.50
2023-12-18T21:31:19.544Z,83.60
2023-12-18T21:34:21.726Z,83.50
2023-12-18T21:37:24.245Z,83.60
2023-12-18T21:40:26.425Z,84.00
2023-12-18T21:43:29.955Z,83.70
2023-12-18T21:46:32.601Z,83.70
2023-12-18T21:49:38.950Z,83.80
2023-12-18T21:52:41.537Z,84.10
2023-12-18T21:55:44.294Z,84.10
2023-12-18T21:58:46.309Z,83.90
2023-12-18T22:01:48.987Z,83.60
2023-12-18T22:04:51.338Z,83.40
2023-12-18T22:07:53.356Z,83.30
2023-12-18T22:10:55.512Z,83.70
2023-12-18T22:13:57.944Z,83.70
2023-12-18T22:17:00.232Z,83.80
2023-12-18T22:20:03.316Z,83.90
2023-12-18T22:23:05.524Z,84.10
2023-12-18T22:26:07.914Z,84.00
2023-12-18T22:29:10.144Z,84.20
2023-12-18T22:32:12.266Z,83.90
2023-12-18T22:35:15.911Z,84.20
2023-12-18T22:38:18.470Z,84.00
2023-12-18T22:41:20.445Z,84.00
2023-12-18T22:44:23.175Z,84.10
2023-12-18T22:47:25.258Z,83.90
2023-12-18T22:50:27.276Z,84.00
2023-12-18T22:53:29.440Z,83.80
2023-12-18T22:56:31.746Z,83.80
2023-12-18T22:59:34.056Z,83.20
2023-12-18T23:02:36.650Z,82.80
2023-12-18T23:05:39.029Z,82.20
2023-12-18T23:08:41.683Z,81.70
2023-12-18T23:11:43.827Z,81.30
2023-12-18T23:14:46.056Z,81.30
2023-12-18T23:17:48.484Z,81.50
2023-12-18T23:20:57.627Z,81.60
2023-12-18T23:23:59.945Z,81.60
2023-12-18T23:27:01.984Z,81.90
2023-12-18T23:30:07.215Z,82.10
2023-12-18T23:33:15.275Z,82.20
2023-12-18T23:36:23.535Z,82.40
2023-12-18T23:39:25.651Z,82.90
2023-12-18T23:42:27.717Z,82.60
2023-12-18T23:45:30.139Z,82.60
2023-12-18T23:48:34.617Z,82.80
2023-12-18T23:51:37.176Z,83.10
2023-12-18T23:54:39.271Z,83.10
2023-12-18T23:57:45.189Z,83.10
